Axtel, Kentucky
Current Conditions -  °F | °C
As of 5:50 AM on Tuesday 21 Oct 2014 (Local Time) from KFTK Reporting Station
Clear Clear  
Wind Chill:   Ceiling: Unl
Heat Index:   Visibility: 10mi
Dew Point:   Wind: 5mph
Humidity: 93%   Direction: 280°W
Pressure: 30"   Gusts: NA
Location:  37.7834°N, 86.4612°W
Report Text: KFTK 211050Z AUTO 28004KT 10SM CLR 07/06 A3000 RMK AO2
Loading
Personal Weather Stations






























Interactive Weather Map
Tropical Storm Tracking
New forecast layout! Learn more

10-Day Weather Forecast

Advertisements
Track Severe Weather on mobile